Time;durP1;ratioP1;P1;durP2;ratioP2;P2;SDS_P1;SDS_P2;PMS_P1;PMS_P2;Temp;Humidity;BMP_temperature;BMP_pressure;BME280_temperature;BME280_humidity;BME280_pressure;Samples;Min_cycle;Max_cycle;Signal;HPM_P1;HPM_P2
2021/10/15 00:00:21;;;;;;;21.98;16.92;;;8.10;99.90;;;;;;5020482;28;20060;-88
2021/10/15 00:02:47;;;;;;;21.55;16.80;;;8.10;99.90;;;;;;5021490;28;20061;-86
2021/10/15 00:05:14;;;;;;;23.90;17.27;;;8.00;99.90;;;;;;5003995;28;20037;-87
2021/10/15 00:07:45;;;;;;;22.92;16.15;;;8.00;99.90;;;;;;5016551;28;20092;-87
2021/10/15 00:10:11;;;;;;;20.27;15.02;;;7.90;99.90;;;;;;5017553;28;20030;-87
2021/10/15 00:12:37;;;;;;;22.60;16.75;;;8.50;99.90;;;;;;5020142;28;20042;-86
2021/10/15 00:15:15;;;;;;;22.13;16.38;;;7.80;99.90;;;;;;5019518;28;20526;-87
2021/10/15 00:17:40;;;;;;;21.92;16.88;;;7.80;99.90;;;;;;5021966;28;20029;-87
2021/10/15 00:20:19;;;;;;;22.73;16.65;;;7.80;99.90;;;;;;5020365;28;20067;-87
2021/10/15 00:22:44;;;;;;;22.25;17.17;;;7.80;99.90;;;;;;5002122;28;20050;-87
2021/10/15 00:25:10;;;;;;;25.10;16.80;;;8.10;99.90;;;;;;5017917;28;20029;-86
2021/10/15 00:27:35;;;;;;;25.38;15.98;;;7.90;99.90;;;;;;5033046;28;20038;-86
2021/10/15 00:30:01;;;;;;;21.65;16.85;;;7.90;99.90;;;;;;5023753;28;20592;-86
2021/10/15 00:32:27;;;;;;;23.98;16.23;;;8.20;99.90;;;;;;5021489;28;20048;-86
2021/10/15 00:34:52;;;;;;;22.60;17.00;;;7.80;99.90;;;;;;5018927;28;20024;-86
2021/10/15 00:37:19;;;;;;;21.75;16.13;;;8.20;99.90;;;;;;5016183;28;20041;-87
2021/10/15 00:39:48;;;;;;;19.08;15.50;;;8.00;99.90;;;;;;5020799;28;20664;-86
2021/10/15 00:42:13;;;;;;;21.05;15.95;;;7.80;99.90;;;;;;5019264;28;20179;-86
2021/10/15 00:44:39;;;;;;;20.98;15.68;;;7.80;99.90;;;;;;5018931;28;20494;-86
2021/10/15 00:47:05;;;;;;;19.23;15.48;;;7.90;99.90;;;;;;5018376;28;20040;-86
2021/10/15 00:49:31;;;;;;;20.35;15.60;;;7.90;99.90;;;;;;5017146;28;20426;-87
2021/10/15 00:51:59;;;;;;;19.95;15.65;;;8.00;99.90;;;;;;5018672;28;20030;-85
2021/10/15 00:54:24;;;;;;;21.20;15.45;;;8.00;99.90;;;;;;5024759;28;20064;-87
2021/10/15 00:56:50;;;;;;;21.10;15.45;;;8.30;99.90;;;;;;5024370;28;20026;-86
2021/10/15 00:59:16;;;;;;;19.90;15.18;;;8.00;99.90;;;;;;5018749;28;20029;-86
2021/10/15 01:01:42;;;;;;;20.77;14.73;;;8.00;99.90;;;;;;5014637;28;20053;-86
2021/10/15 01:04:08;;;;;;;20.52;15.23;;;8.00;99.90;;;;;;5017791;28;20113;-86
2021/10/15 01:06:34;;;;;;;21.83;14.85;;;8.00;99.90;;;;;;5017812;28;20025;-86
2021/10/15 01:09:01;;;;;;;21.75;14.73;;;8.00;99.90;;;;;;5019274;28;20025;-86
2021/10/15 01:11:28;;;;;;;17.85;14.20;;;7.90;99.90;;;;;;5018705;28;20398;-86
2021/10/15 01:13:54;;;;;;;20.80;14.82;;;7.90;99.90;;;;;;5017174;28;20033;-86
2021/10/15 01:16:29;;;;;;;19.85;15.35;;;8.00;99.90;;;;;;5017017;28;20034;-86
2021/10/15 01:19:00;;;;;;;19.33;14.48;;;8.40;99.90;;;;;;5017825;28;20034;-86
2021/10/15 01:21:27;;;;;;;16.85;13.70;;;8.10;99.90;;;;;;5002429;28;20081;-86
2021/10/15 01:23:53;;;;;;;18.52;13.98;;;7.90;99.90;;;;;;5018588;28;20041;-86
2021/10/15 01:26:19;;;;;;;21.23;15.02;;;7.90;99.90;;;;;;5022488;28;20021;-85
2021/10/15 01:28:44;;;;;;;19.88;14.80;;;7.90;99.90;;;;;;5029687;28;20022;-86
2021/10/15 01:31:10;;;;;;;18.88;14.30;;;7.80;99.90;;;;;;5016242;28;20029;-87
2021/10/15 01:33:36;;;;;;;20.83;14.43;;;7.70;99.90;;;;;;5019544;28;20026;-87
2021/10/15 01:36:03;;;;;;;18.67;14.80;;;7.70;99.90;;;;;;5018145;28;20058;-86
2021/10/15 01:38:28;;;;;;;18.25;13.73;;;7.70;99.90;;;;;;5020147;28;20107;-86
2021/10/15 01:40:55;;;;;;;17.80;13.40;;;7.70;99.90;;;;;;5015995;28;20069;-86
2021/10/15 01:43:22;;;;;;;15.93;13.35;;;7.70;99.90;;;;;;5014836;28;20183;-87
2021/10/15 01:45:48;;;;;;;17.40;13.45;;;7.70;99.90;;;;;;5017350;28;20120;-86
2021/10/15 01:48:14;;;;;;;20.10;12.90;;;7.70;99.90;;;;;;5018884;28;20121;-85
2021/10/15 01:50:40;;;;;;;18.90;12.68;;;7.90;99.90;;;;;;5012482;28;20191;-86
2021/10/15 01:53:05;;;;;;;16.38;12.23;;;7.70;99.90;;;;;;5029397;28;20572;-86
2021/10/15 01:55:31;;;;;;;16.77;12.50;;;7.70;99.90;;;;;;5015019;28;20030;-86
2021/10/15 01:57:56;;;;;;;15.25;11.90;;;7.70;99.90;;;;;;5017673;28;20041;-86
2021/10/15 02:00:22;;;;;;;16.00;11.55;;;7.70;99.90;;;;;;5018617;28;20069;-86
2021/10/15 02:02:48;;;;;;;15.60;12.07;;;7.70;99.90;;;;;;5017818;28;20025;-86
2021/10/15 02:05:16;;;;;;;17.98;12.57;;;7.60;99.90;;;;;;5017117;28;20017;-86
2021/10/15 02:07:42;;;;;;;17.35;12.40;;;8.00;99.90;;;;;;5014311;28;20065;-86
2021/10/15 02:10:09;;;;;;;15.23;11.38;;;7.70;99.90;;;;;;5016090;28;20098;-85
2021/10/15 02:12:36;;;;;;;14.25;11.68;;;7.70;99.90;;;;;;5025042;28;20068;-86
2021/10/15 02:15:02;;;;;;;15.07;11.68;;;7.80;99.90;;;;;;5030023;28;20026;-86
2021/10/15 02:17:27;;;;;;;15.68;10.98;;;7.70;99.90;;;;;;5027556;28;20492;-86
2021/10/15 02:19:53;;;;;;;14.43;11.40;;;7.60;99.90;;;;;;5031338;28;20068;-85
2021/10/15 02:22:21;;;;;;;14.07;11.32;;;7.60;99.90;;;;;;5013558;28;20397;-86
2021/10/15 02:24:47;;;;;;;13.43;10.68;;;7.60;99.90;;;;;;5018825;28;20100;-86
2021/10/15 02:27:13;;;;;;;13.50;10.48;;;7.60;99.90;;;;;;5019114;28;20467;-86
2021/10/15 02:29:38;;;;;;;12.90;10.70;;;7.70;99.90;;;;;;5017460;28;20026;-85
2021/10/15 02:32:04;;;;;;;12.07;10.23;;;7.60;99.90;;;;;;5017856;28;20022;-86
2021/10/15 02:34:30;;;;;;;14.07;10.80;;;7.70;99.90;;;;;;5013956;28;20022;-87
2021/10/15 02:36:55;;;;;;;14.52;10.48;;;7.70;99.90;;;;;;5017344;28;20038;-86
2021/10/15 02:39:21;;;;;;;11.80;9.73;;;7.60;99.90;;;;;;5017308;28;20033;-86
2021/10/15 02:41:47;;;;;;;15.10;10.93;;;7.60;99.90;;;;;;5000529;28;20405;-87
2021/10/15 02:44:13;;;;;;;15.23;11.13;;;7.60;99.90;;;;;;5027543;28;20087;-87
2021/10/15 02:46:40;;;;;;;12.75;9.85;;;7.70;99.90;;;;;;5015006;28;20041;-87
2021/10/15 02:49:07;;;;;;;12.48;9.82;;;7.70;99.90;;;;;;5031578;28;20040;-86
2021/10/15 02:51:33;;;;;;;14.18;10.13;;;7.90;99.90;;;;;;5023979;28;20119;-86
2021/10/15 02:53:58;;;;;;;13.30;10.48;;;7.70;99.90;;;;;;5023460;28;20038;-86
2021/10/15 02:56:24;;;;;;;14.88;9.57;;;8.10;99.90;;;;;;5016642;28;20026;-87
2021/10/15 02:58:50;;;;;;;14.02;9.90;;;7.70;99.90;;;;;;4997227;28;20050;-86
2021/10/15 03:01:15;;;;;;;14.43;10.23;;;7.70;99.90;;;;;;5014106;28;20018;-87
2021/10/15 03:03:41;;;;;;;13.88;10.55;;;7.70;99.90;;;;;;5018494;28;20081;-86
2021/10/15 03:06:07;;;;;;;13.32;10.73;;;7.90;99.90;;;;;;5016274;28;20517;-85
2021/10/15 03:08:33;;;;;;;16.08;10.43;;;7.60;99.90;;;;;;5002643;28;20033;-86
2021/10/15 03:10:59;;;;;;;14.07;10.55;;;8.10;99.90;;;;;;5028994;28;20552;-86
2021/10/15 03:13:24;;;;;;;17.55;11.02;;;7.70;99.90;;;;;;4997390;28;20076;-86
2021/10/15 03:15:50;;;;;;;13.73;10.52;;;7.60;99.90;;;;;;5017079;28;20447;-87
2021/10/15 03:18:16;;;;;;;15.02;10.48;;;7.60;99.90;;;;;;5025996;28;20037;-86
2021/10/15 03:20:42;;;;;;;13.25;10.23;;;7.60;99.90;;;;;;5023410;28;20045;-86
2021/10/15 03:23:08;;;;;;;13.20;10.20;;;7.60;99.90;;;;;;5019049;28;20121;-86
2021/10/15 03:25:34;;;;;;;13.73;9.45;;;7.60;99.90;;;;;;4997398;28;20450;-86
2021/10/15 03:28:00;;;;;;;11.38;10.02;;;7.60;99.90;;;;;;4998887;28;20112;-86
2021/10/15 03:30:25;;;;;;;13.57;10.88;;;7.50;99.90;;;;;;5028563;28;20410;-86
2021/10/15 03:32:51;;;;;;;13.38;10.10;;;7.50;99.90;;;;;;5021440;28;20048;-86
2021/10/15 03:35:17;;;;;;;12.40;9.82;;;7.50;99.90;;;;;;4995909;28;20095;-86
2021/10/15 03:37:43;;;;;;;13.77;9.93;;;7.70;99.90;;;;;;5030006;28;20033;-86
2021/10/15 03:40:10;;;;;;;15.13;10.35;;;7.50;99.90;;;;;;5030724;28;20032;-86
2021/10/15 03:42:35;;;;;;;11.50;9.13;;;7.50;99.90;;;;;;5023595;28;20033;-86
2021/10/15 03:45:01;;;;;;;15.43;11.00;;;7.50;99.90;;;;;;5020573;28;20038;-86
2021/10/15 03:47:26;;;;;;;15.32;10.57;;;7.50;99.90;;;;;;5016425;28;20029;-86
2021/10/15 03:49:52;;;;;;;12.60;10.80;;;7.60;99.90;;;;;;5014534;28;20133;-86
2021/10/15 03:52:18;;;;;;;13.45;9.77;;;7.60;99.90;;;;;;5031006;28;20041;-86
2021/10/15 03:54:43;;;;;;;15.55;10.60;;;7.60;99.90;;;;;;5031284;28;20029;-86
2021/10/15 03:57:09;;;;;;;13.98;10.85;;;7.50;99.90;;;;;;5020593;28;20037;-85
2021/10/15 03:59:34;;;;;;;13.45;10.13;;;7.70;99.90;;;;;;4998221;28;20095;-86
2021/10/15 04:02:00;;;;;;;15.00;10.30;;;7.50;99.90;;;;;;5028084;28;20030;-85
2021/10/15 04:04:28;;;;;;;13.95;10.43;;;7.50;99.90;;;;;;5033322;28;20084;-86
2021/10/15 04:06:54;;;;;;;13.20;10.45;;;7.90;99.90;;;;;;5003066;28;20471;-86
2021/10/15 04:09:20;;;;;;;13.95;10.13;;;7.50;99.90;;;;;;5030937;28;20032;-86
2021/10/15 04:11:46;;;;;;;11.70;9.82;;;7.70;99.90;;;;;;5025841;28;20029;-86
2021/10/15 04:14:11;;;;;;;12.13;9.60;;;7.50;99.90;;;;;;5021577;28;20076;-86
2021/10/15 04:16:37;;;;;;;13.30;10.25;;;7.70;99.90;;;;;;5017120;28;20025;-86
2021/10/15 04:19:03;;;;;;;14.18;10.43;;;7.50;99.90;;;;;;5034630;28;20535;-86
2021/10/15 04:21:28;;;;;;;11.65;9.75;;;7.60;99.90;;;;;;5021143;28;20398;-86
2021/10/15 04:23:54;;;;;;;12.90;10.10;;;7.40;99.90;;;;;;5019742;28;20049;-86
2021/10/15 04:26:20;;;;;;;13.98;9.80;;;7.50;99.90;;;;;;5022133;28;20068;-86
2021/10/15 04:28:45;;;;;;;13.38;9.88;;;7.40;99.90;;;;;;5017999;28;20025;-86
2021/10/15 04:31:11;;;;;;;13.00;9.80;;;7.40;99.90;;;;;;5017519;28;20700;-86
2021/10/15 04:33:37;;;;;;;12.40;10.02;;;7.40;99.90;;;;;;5034115;28;20559;-87
2021/10/15 04:36:03;;;;;;;11.52;9.63;;;7.30;99.90;;;;;;5030654;28;20029;-85
2021/10/15 04:38:28;;;;;;;10.88;9.20;;;7.40;99.90;;;;;;5029725;28;20071;-86
2021/10/15 04:40:54;;;;;;;15.25;10.18;;;7.30;99.90;;;;;;5018154;28;20482;-86
2021/10/15 04:43:19;;;;;;;11.48;9.35;;;7.30;99.90;;;;;;5016283;28;20107;-86
2021/10/15 04:45:45;;;;;;;12.38;9.80;;;7.30;99.90;;;;;;5018441;28;20562;-86
2021/10/15 04:48:11;;;;;;;12.80;9.98;;;7.60;99.90;;;;;;5021324;28;20026;-86
2021/10/15 04:50:36;;;;;;;11.68;9.60;;;7.70;99.90;;;;;;5019362;28;20037;-86
2021/10/15 04:53:06;;;;;;;12.50;9.77;;;7.30;99.90;;;;;;5014789;28;20048;-86
2021/10/15 04:55:33;;;;;;;12.75;9.68;;;7.70;99.90;;;;;;5030546;28;20502;-86
2021/10/15 04:58:00;;;;;;;14.38;9.90;;;7.50;99.90;;;;;;5017933;28;20402;-86
2021/10/15 05:00:26;;;;;;;14.15;10.00;;;7.40;99.90;;;;;;5019037;28;20029;-86
2021/10/15 05:02:52;;;;;;;14.30;10.38;;;7.20;99.90;;;;;;5020209;28;20112;-86
2021/10/15 05:05:23;;;;;;;12.60;9.65;;;7.10;99.90;;;;;;5025913;28;20109;-87
2021/10/15 05:07:50;;;;;;;11.23;9.73;;;7.20;99.90;;;;;;5029398;28;20036;-86
2021/10/15 05:10:16;;;;;;;13.40;9.48;;;7.10;99.90;;;;;;5016304;28;20025;-86
2021/10/15 05:12:42;;;;;;;11.77;9.73;;;7.10;99.90;;;;;;5018162;28;20064;-86
2021/10/15 05:15:09;;;;;;;12.45;10.25;;;7.10;99.90;;;;;;5019273;28;20065;-85
2021/10/15 05:17:35;;;;;;;12.05;9.93;;;7.10;99.90;;;;;;5020010;28;20033;-86
2021/10/15 05:20:03;;;;;;;13.10;9.93;;;7.10;99.90;;;;;;5017334;28;20017;-86
2021/10/15 05:22:28;;;;;;;12.75;9.23;;;7.10;99.90;;;;;;5014888;28;20477;-85
2021/10/15 05:24:54;;;;;;;12.18;9.73;;;7.10;99.90;;;;;;5019360;28;20036;-86
2021/10/15 05:27:20;;;;;;;12.50;9.77;;;7.10;99.90;;;;;;5017849;28;20022;-85
2021/10/15 05:29:47;;;;;;;13.35;9.50;;;7.10;99.90;;;;;;5018867;28;20038;-86
2021/10/15 05:32:17;;;;;;;17.52;9.60;;;7.10;99.90;;;;;;4999566;28;20033;-86
2021/10/15 05:34:43;;;;;;;13.90;9.73;;;7.20;99.90;;;;;;5014508;28;20041;-86
2021/10/15 05:37:09;;;;;;;16.50;9.93;;;7.10;99.90;;;;;;5016612;28;20037;-85
2021/10/15 05:39:35;;;;;;;12.85;10.35;;;7.40;99.90;;;;;;5025228;28;20120;-85
2021/10/15 05:42:01;;;;;;;15.40;10.30;;;7.40;99.90;;;;;;5022058;28;20592;-86
2021/10/15 05:44:27;;;;;;;14.73;10.65;;;7.00;99.90;;;;;;5018013;28;20494;-86
2021/10/15 05:46:53;;;;;;;13.27;10.57;;;7.00;99.90;;;;;;5016951;28;20032;-85
2021/10/15 05:49:18;;;;;;;13.43;10.40;;;7.00;99.90;;;;;;5015815;28;20112;-86
2021/10/15 05:51:48;;;;;;;12.25;10.20;;;7.00;99.90;;;;;;5017250;28;20498;-85
2021/10/15 05:54:27;;;;;;;14.00;10.70;;;7.00;99.90;;;;;;5017830;28;20030;-85
2021/10/15 05:58:48;;;;;;;11.48;9.95;;;7.30;99.90;;;;;;4999999;28;20141;-85
2021/10/15 05:59:44;;;;;;;12.43;9.57;;;7.10;99.90;;;;;;5015240;28;20042;-86
2021/10/15 06:02:10;;;;;;;13.90;10.90;;;7.30;99.90;;;;;;4996356;28;20364;-86
2021/10/15 06:15:43;;;;;;;12.40;9.70;;;7.20;99.90;;;;;;4953978;28;20053;-87
2021/10/15 06:18:15;;;;;;;16.17;11.20;;;7.20;99.90;;;;;;4954450;28;20039;-87
2021/10/15 06:20:41;;;;;;;14.07;11.60;;;7.30;99.90;;;;;;4954252;28;20038;-85
2021/10/15 06:23:06;;;;;;;17.63;12.35;;;7.40;99.90;;;;;;4955755;28;20504;-88
2021/10/15 06:25:32;;;;;;;15.60;12.18;;;7.40;99.90;;;;;;4952326;28;20077;-87
2021/10/15 06:28:02;;;;;;;17.02;12.40;;;7.40;99.90;;;;;;4952448;29;20531;-87
2021/10/15 06:30:29;;;;;;;19.33;14.25;;;7.50;99.90;;;;;;4935871;29;20033;-87
2021/10/15 06:32:55;;;;;;;19.60;13.48;;;8.00;99.90;;;;;;4952776;28;20050;-87
2021/10/15 06:35:23;;;;;;;16.70;12.80;;;7.60;99.90;;;;;;4952784;28;20031;-91
2021/10/15 06:37:49;;;;;;;21.55;13.95;;;7.70;99.90;;;;;;4952058;28;20054;-88
2021/10/15 06:40:15;;;;;;;16.98;12.98;;;7.80;99.90;;;;;;4951531;29;20523;-88
2021/10/15 06:42:41;;;;;;;16.70;12.07;;;7.90;99.90;;;;;;4958918;28;20039;-87
2021/10/15 06:45:07;;;;;;;16.90;11.25;;;8.00;99.90;;;;;;4954723;28;20090;-88
2021/10/15 06:47:33;;;;;;;18.70;11.55;;;8.10;99.90;;;;;;5000844;28;20056;-87
2021/10/15 06:49:59;;;;;;;14.98;11.27;;;8.20;99.90;;;;;;5011646;28;20402;-87
2021/10/15 06:52:24;;;;;;;14.50;11.52;;;8.50;99.90;;;;;;5011793;28;20045;-88
2021/10/15 06:54:51;;;;;;;19.63;11.10;;;8.30;99.90;;;;;;5011318;28;20018;-86
2021/10/15 06:57:17;;;;;;;20.05;11.25;;;8.40;99.90;;;;;;5011904;28;20034;-89
2021/10/15 06:59:43;;;;;;;15.93;10.18;;;8.40;99.90;;;;;;5011521;28;20125;-84
2021/10/15 07:02:09;;;;;;;13.85;10.80;;;8.70;99.90;;;;;;5011683;28;20033;-85
2021/10/15 07:04:34;;;;;;;11.68;9.77;;;8.80;99.90;;;;;;5011411;28;20574;-86
2021/10/15 07:07:00;;;;;;;20.35;10.65;;;9.00;99.90;;;;;;5012259;28;20036;-85
2021/10/15 07:09:26;;;;;;;13.13;9.70;;;9.00;99.90;;;;;;5010778;28;20050;-85
2021/10/15 07:11:53;;;;;;;16.17;10.32;;;9.10;99.90;;;;;;4994655;28;20042;-85
2021/10/15 07:14:18;;;;;;;15.35;10.23;;;9.10;99.90;;;;;;5011057;28;20026;-85
2021/10/15 07:16:44;;;;;;;16.20;10.00;;;9.20;99.90;;;;;;4994130;28;20040;-85
2021/10/15 07:19:13;;;;;;;12.45;10.70;;;9.10;99.90;;;;;;5011792;28;20110;-86
2021/10/15 07:21:40;;;;;;;15.32;10.50;;;9.50;99.90;;;;;;5010406;28;20022;-86
2021/10/15 07:24:07;;;;;;;11.43;9.18;;;9.10;99.90;;;;;;4994606;28;20494;-84
2021/10/15 07:26:32;;;;;;;15.43;9.63;;;9.20;99.90;;;;;;5010895;28;20037;-85
2021/10/15 07:28:58;;;;;;;13.65;9.98;;;9.40;99.90;;;;;;4995092;28;20084;-86
2021/10/15 07:31:24;;;;;;;16.25;10.18;;;9.80;99.90;;;;;;5011642;28;20057;-85
2021/10/15 07:33:50;;;;;;;14.88;11.00;;;10.10;99.90;;;;;;5011729;28;20030;-84
2021/10/15 07:36:15;;;;;;;14.43;10.50;;;9.80;99.90;;;;;;5000474;28;20477;-86
2021/10/15 07:38:41;;;;;;;15.57;9.60;;;9.90;99.90;;;;;;5012845;28;20057;-86
2021/10/15 07:41:08;;;;;;;15.52;9.43;;;10.20;99.90;;;;;;5015282;28;20440;-86
2021/10/15 07:43:34;;;;;;;13.18;9.77;;;10.40;99.90;;;;;;5014639;28;20116;-86
2021/10/15 07:46:00;;;;;;;10.93;8.50;;;10.80;99.90;;;;;;5015396;28;20033;-86
2021/10/15 07:48:26;;;;;;;13.90;8.45;;;11.00;99.90;;;;;;5014524;28;20478;-86
2021/10/15 07:50:52;;;;;;;14.38;7.82;;;12.10;99.90;;;;;;5014217;28;20132;-87
2021/10/15 07:53:17;;;;;;;12.88;8.18;;;15.00;99.90;;;;;;5014076;28;20108;-86
2021/10/15 07:55:43;;;;;;;11.30;7.90;;;17.90;99.90;;;;;;5014493;28;20053;-85
2021/10/15 07:58:09;;;;;;;11.85;7.55;;;19.40;99.90;;;;;;5014967;28;20029;-86
2021/10/15 08:00:38;;;;;;;13.13;7.13;;;21.00;99.90;;;;;;5014798;28;20025;-91
2021/10/15 08:03:03;;;;;;;8.80;6.90;;;22.40;99.90;;;;;;5015374;28;20058;-91
2021/10/15 08:05:29;;;;;;;11.70;6.88;;;23.90;99.90;;;;;;4998451;28;20495;-89
2021/10/15 08:07:55;;;;;;;9.95;6.63;;;24.80;99.90;;;;;;5014936;28;20026;-88
2021/10/15 08:10:20;;;;;;;12.32;6.75;;;25.50;99.90;;;;;;5014391;28;20474;-88
2021/10/15 08:12:46;;;;;;;10.63;6.80;;;27.00;99.90;;;;;;5014747;28;20061;-88
2021/10/15 08:15:14;;;;;;;10.10;6.72;;;27.50;99.90;;;;;;5014233;28;20642;-89
2021/10/15 08:17:40;;;;;;;10.23;6.68;;;26.40;99.90;;;;;;5013773;28;20461;-89
2021/10/15 08:20:06;;;;;;;7.30;6.60;;;27.00;99.90;;;;;;5013734;28;20030;-88
2021/10/15 08:22:32;;;;;;;11.43;7.15;;;28.00;99.90;;;;;;5013765;28;20030;-88
2021/10/15 08:24:58;;;;;;;7.40;6.35;;;28.30;99.90;;;;;;5014952;28;20133;-88
2021/10/15 08:27:23;;;;;;;7.97;6.65;;;28.30;99.90;;;;;;5014197;28;20038;-91
2021/10/15 08:29:49;;;;;;;10.10;6.82;;;27.70;99.90;;;;;;4998025;28;20037;-89
2021/10/15 08:32:14;;;;;;;8.32;6.40;;;28.30;99.90;;;;;;5013978;28;20550;-90
2021/10/15 08:34:40;;;;;;;7.50;6.18;;;29.60;99.90;;;;;;5013811;28;20101;-90
2021/10/15 08:37:06;;;;;;;8.90;6.28;;;29.80;99.90;;;;;;4997292;28;20067;-89
2021/10/15 08:39:31;;;;;;;10.65;6.55;;;30.10;99.90;;;;;;5013532;28;20406;-90
2021/10/15 08:41:59;;;;;;;8.05;6.22;;;31.10;99.90;;;;;;4997824;28;20038;-91
2021/10/15 08:44:35;;;;;;;6.90;6.20;;;31.90;99.90;;;;;;5013586;28;20046;-91
2021/10/15 08:47:01;;;;;;;6.45;5.82;;;32.80;99.90;;;;;;5014048;28;20030;-91
2021/10/15 08:49:27;;;;;;;7.38;5.85;;;32.20;99.90;;;;;;5012491;28;20077;-92
2021/10/15 08:51:53;;;;;;;8.43;5.82;;;33.30;99.90;;;;;;5014165;28;20074;-90
2021/10/15 08:54:19;;;;;;;8.25;5.82;;;32.80;99.90;;;;;;5013450;28;20030;-89
2021/10/15 08:56:45;;;;;;;11.57;6.78;;;30.90;99.90;;;;;;5013137;28;20034;-89
2021/10/15 08:59:13;;;;;;;9.68;7.68;;;31.30;99.90;;;;;;5013530;28;20026;-89
2021/10/15 09:01:41;;;;;;;9.32;7.68;;;30.30;99.90;;;;;;4995928;28;20045;-88
2021/10/15 09:04:07;;;;;;;12.68;6.78;;;31.90;99.90;;;;;;4996051;28;20390;-88
2021/10/15 09:06:37;;;;;;;9.07;7.05;;;32.00;99.90;;;;;;5013189;28;20034;-89
2021/10/15 09:09:04;;;;;;;10.98;7.03;;;32.70;99.90;;;;;;4996699;28;20034;-89
2021/10/15 09:11:34;;;;;;;11.77;7.18;;;32.90;99.90;;;;;;5013598;28;20162;-89
2021/10/15 09:14:08;;;;;;;9.00;7.10;;;33.80;99.90;;;;;;5012509;28;20474;-89
2021/10/15 09:17:03;;;;;;;7.90;6.60;;;34.30;99.90;;;;;;4995489;28;20022;-88
2021/10/15 09:19:29;;;;;;;9.32;6.43;;;34.50;99.90;;;;;;5011421;28;20041;-87
2021/10/15 09:22:26;;;;;;;7.85;6.00;;;34.50;99.90;;;;;;5013134;28;20033;-88
2021/10/15 09:25:05;;;;;;;7.50;5.90;;;32.50;99.90;;;;;;5011734;28;20050;-87
2021/10/15 09:27:35;;;;;;;7.28;5.65;;;32.00;99.90;;;;;;5012440;28;20140;-88
2021/10/15 09:30:05;;;;;;;6.07;5.47;;;31.80;99.90;;;;;;5012583;28;20474;-85
2021/10/15 09:32:34;;;;;;;7.70;5.60;;;33.50;99.90;;;;;;5012838;28;20589;-88
2021/10/15 09:35:00;;;;;;;9.15;4.78;;;33.70;99.90;;;;;;5012382;28;20033;-89
2021/10/15 09:37:29;;;;;;;6.13;4.93;;;33.90;99.90;;;;;;5012648;28;20060;-88
2021/10/15 09:40:03;;;;;;;6.55;4.75;;;33.40;99.90;;;;;;5013227;28;20033;-88
2021/10/15 09:42:31;;;;;;;7.25;4.70;;;32.50;99.90;;;;;;5008533;28;20061;-89
2021/10/15 09:45:23;;;;;;;5.63;4.95;;;33.90;99.90;;;;;;4998081;28;20109;-88
2021/10/15 09:47:57;;;;;;;7.15;4.53;;;35.00;99.90;;;;;;4995587;28;20038;-89
2021/10/15 09:50:28;;;;;;;4.78;4.25;;;34.20;99.90;;;;;;4998108;28;20030;-88
2021/10/15 09:53:00;;;;;;;6.28;4.38;;;33.70;99.90;;;;;;4996316;28;20112;-89
2021/10/15 09:55:30;;;;;;;5.95;4.20;;;34.50;99.90;;;;;;4977928;28;20026;-91
2021/10/15 09:58:20;;;;;;;4.75;3.90;;;34.10;99.90;;;;;;4997531;28;20505;-91
2021/10/15 10:00:50;;;;;;;7.63;3.95;;;33.20;99.90;;;;;;4999121;28;20086;-93
2021/10/15 10:03:17;;;;;;;7.03;3.83;;;34.10;99.90;;;;;;4998805;28;20479;-90
2021/10/15 10:05:42;;;;;;;8.07;4.30;;;34.30;99.90;;;;;;4998217;28;20467;-90
2021/10/15 10:08:10;;;;;;;6.45;3.55;;;34.40;99.90;;;;;;4998648;28;20064;-89
2021/10/15 10:10:37;;;;;;;6.55;3.63;;;35.90;99.90;;;;;;4978925;28;20034;-90
2021/10/15 10:13:05;;;;;;;5.32;3.90;;;37.40;99.90;;;;;;5004263;28;20081;-87
2021/10/15 10:15:35;;;;;;;4.57;3.53;;;37.80;99.90;;;;;;4998411;28;20030;-88
2021/10/15 10:18:21;;;;;;;5.32;3.78;;;38.40;99.90;;;;;;4997296;28;20062;-89
2021/10/15 10:20:52;;;;;;;6.03;3.92;;;39.20;99.90;;;;;;4999364;28;20026;-95
2021/10/15 10:23:17;;;;;;;5.40;3.50;;;39.80;99.90;;;;;;5001012;28;20026;-96
2021/10/15 10:25:43;;;;;;;4.57;3.58;;;40.90;99.90;;;;;;4996271;28;20045;-91
2021/10/15 10:28:13;;;;;;;4.03;3.30;;;40.10;99.90;;;;;;4997644;28;20026;-92
2021/10/15 10:30:43;;;;;;;4.93;3.83;;;39.60;99.90;;;;;;4998920;28;20033;-92
2021/10/15 10:33:09;;;;;;;4.93;3.58;;;39.60;99.90;;;;;;5002304;28;20045;-89
2021/10/15 10:35:35;;;;;;;5.38;3.95;;;39.30;99.90;;;;;;5005816;28;20034;-90
2021/10/15 10:38:19;;;;;;;4.97;3.95;;;39.80;99.90;;;;;;5011717;28;20430;-90
2021/10/15 10:41:00;;;;;;;5.07;3.78;;;36.50;99.90;;;;;;4982085;28;20033;-95
2021/10/15 10:43:29;;;;;;;4.30;3.90;;;37.70;99.90;;;;;;5005868;28;20053;-93
2021/10/15 10:46:14;;;;;;;4.78;4.15;;;37.70;99.90;;;;;;5000411;28;20045;-92
2021/10/15 10:48:49;;;;;;;4.60;4.13;;;40.00;99.90;;;;;;4997613;28;20112;-91
2021/10/15 10:51:21;;;;;;;4.85;3.83;;;38.00;99.90;;;;;;5018454;28;20034;-91
2021/10/15 10:54:05;;;;;;;4.95;3.85;;;37.70;99.90;;;;;;4999685;28;20041;-87
2021/10/15 10:56:39;;;;;;;6.55;4.45;;;37.10;99.90;;;;;;5017187;28;20022;-91
2021/10/15 10:59:25;;;;;;;4.60;4.10;;;37.10;99.90;;;;;;5018687;28;20029;-92
2021/10/15 11:01:53;;;;;;;4.47;4.07;;;37.50;99.90;;;;;;5001727;28;20045;-89
2021/10/15 11:04:45;;;;;;;5.78;3.95;;;39.60;99.90;;;;;;5019582;28;20030;-96
2021/10/15 11:07:16;;;;;;;4.40;3.97;;;39.90;99.90;;;;;;5022455;28;20037;-96
2021/10/15 11:09:53;;;;;;;5.97;4.18;;;40.10;99.90;;;;;;5019009;28;20504;-96
2021/10/15 11:12:27;;;;;;;4.65;4.25;;;39.40;99.90;;;;;;5017906;28;20049;-95
2021/10/15 11:15:00;;;;;;;4.60;4.20;;;38.00;99.90;;;;;;5023762;28;20040;-94
2021/10/15 11:17:45;;;;;;;5.40;3.92;;;38.30;99.90;;;;;;5020950;28;20044;-86
2021/10/15 11:20:23;;;;;;;4.88;4.38;;;38.30;99.90;;;;;;5022081;28;20017;-90
2021/10/15 11:22:55;;;;;;;4.97;4.00;;;35.60;99.90;;;;;;5017722;28;20026;-89
2021/10/15 11:25:33;;;;;;;6.78;4.35;;;35.40;99.90;;;;;;5017969;28;20505;-89
2021/10/15 11:28:05;;;;;;;6.82;4.57;;;35.90;99.90;;;;;;5020863;28;20033;-95
2021/10/15 11:30:34;;;;;;;4.50;4.10;;;36.60;99.90;;;;;;5002180;28;20052;-90
2021/10/15 11:33:01;;;;;;;5.05;4.55;;;37.00;99.90;;;;;;5003122;28;20124;-90
2021/10/15 11:35:32;;;;;;;4.45;4.05;;;37.60;99.90;;;;;;5021879;28;20045;-92
2021/10/15 11:38:03;;;;;;;5.72;5.22;;;38.20;99.90;;;;;;5020607;28;20048;-91
2021/10/15 11:40:30;;;;;;;5.25;4.75;;;34.10;99.90;;;;;;4999502;28;20033;-94
2021/10/15 11:43:10;;;;;;;6.85;4.60;;;32.10;99.90;;;;;;5002531;28;20046;-89
2021/10/15 11:45:40;;;;;;;5.93;4.80;;;31.20;99.90;;;;;;5019786;28;20457;-87
2021/10/15 11:48:11;;;;;;;5.15;4.50;;;30.70;99.90;;;;;;5020143;28;20034;-88
2021/10/15 11:50:41;;;;;;;5.80;4.80;;;31.70;99.90;;;;;;5020105;28;20494;-88
2021/10/15 11:53:08;;;;;;;10.70;4.50;;;32.90;99.90;;;;;;5002168;28;20037;-88
2021/10/15 11:55:37;;;;;;;4.95;4.47;;;33.40;99.90;;;;;;5016343;28;20029;-88
2021/10/15 11:58:24;;;;;;;4.80;4.18;;;34.10;99.90;;;;;;5008625;28;20041;-87
2021/10/15 12:01:22;;;;;;;5.05;4.63;;;33.90;99.90;;;;;;5017912;28;20025;-87
2021/10/15 12:03:55;;;;;;;5.15;4.65;;;32.80;99.90;;;;;;5013433;28;20121;-87
2021/10/15 12:06:25;;;;;;;5.35;4.47;;;33.70;99.90;;;;;;5019869;28;20055;-87
2021/10/15 12:08:54;;;;;;;4.53;4.07;;;36.30;99.90;;;;;;5019866;28;20025;-88
2021/10/15 12:11:31;;;;;;;6.03;4.70;;;38.30;99.90;;;;;;5019950;28;20056;-87
2021/10/15 12:14:01;;;;;;;5.10;4.70;;;38.60;99.90;;;;;;5018044;28;20038;-88
2021/10/15 12:16:32;;;;;;;4.90;4.50;;;37.80;99.90;;;;;;5016175;28;20085;-87
2021/10/15 12:19:08;;;;;;;5.05;4.55;;;37.60;99.90;;;;;;5019538;28;20033;-88
2021/10/15 12:21:38;;;;;;;5.13;4.63;;;38.80;99.90;;;;;;5020849;28;20040;-87
2021/10/15 12:24:06;;;;;;;5.57;4.95;;;38.10;99.90;;;;;;5019595;28;20026;-87
2021/10/15 12:26:32;;;;;;;6.90;4.90;;;36.40;99.90;;;;;;5019422;28;20053;-88
2021/10/15 12:28:58;;;;;;;5.63;4.70;;;37.40;99.90;;;;;;5018582;28;20052;-87
2021/10/15 12:31:33;;;;;;;7.03;5.63;;;34.70;99.90;;;;;;5016758;28;20037;-88
2021/10/15 12:34:09;;;;;;;8.02;5.20;;;35.40;99.90;;;;;;5018438;28;20030;-87
2021/10/15 12:36:37;;;;;;;5.50;4.90;;;35.90;99.90;;;;;;5021006;28;20084;-86
2021/10/15 12:39:19;;;;;;;6.18;5.10;;;36.70;99.90;;;;;;5019584;28;20034;-86
2021/10/15 12:41:45;;;;;;;5.82;5.30;;;34.60;99.90;;;;;;5019336;28;20037;-87
2021/10/15 12:44:28;;;;;;;8.30;5.50;;;32.60;99.90;;;;;;5019428;28;20040;-87
2021/10/15 12:47:18;;;;;;;5.63;4.75;;;29.20;99.90;;;;;;5017068;28;20026;-88
2021/10/15 12:49:58;;;;;;;7.35;4.95;;;27.40;99.90;;;;;;5000720;28;20466;-87
2021/10/15 12:52:42;;;;;;;5.63;5.05;;;26.60;99.90;;;;;;5015723;28;20426;-88
2021/10/15 12:55:19;;;;;;;5.68;4.78;;;25.50;99.90;;;;;;5026958;28;20072;-87
2021/10/15 12:57:46;;;;;;;6.43;5.18;;;26.70;99.90;;;;;;5019233;28;20054;-88